Apache Acres, Indiana
Current Conditions -  °F | °C
As of 11:53 PM on Sunday 28 Dec 2014 (Local Time) from KHUF Reporting Station
Clear Clear  
Wind Chill: 23°   Ceiling: Unl
Heat Index: 23°   Visibility: 9mi
Dew Point: 21°   Wind: 0mph
Humidity: 92%   Direction: NA
Pressure: 30.25"   Gusts: NA
Location:  39.543°N, 87.3153°W
Report Text: KHUF 290453Z 00000KT 9SM CLR M05/M06 A3025 RMK AO2 SLP249 T10501061 400171056
Loading
Personal Weather Stations






























Interactive Weather Map New forecast layout! Learn more

10-Day Weather Forecast

Advertisements
Track Severe Weather on mobile